createdAt,value
2022-10-20T00:01:11.961Z,8.40
2022-10-20T00:03:42.130Z,8.20
2022-10-20T00:06:12.961Z,8.77
2022-10-20T00:08:43.778Z,7.80
2022-10-20T00:11:12.895Z,8.50
2022-10-20T00:13:41.600Z,8.77
2022-10-20T00:16:12.131Z,8.20
2022-10-20T00:18:40.080Z,8.87
2022-10-20T00:21:20.300Z,8.70
2022-10-20T00:23:47.757Z,9.40
2022-10-20T00:26:18.922Z,9.53
2022-10-20T00:28:46.265Z,9.70
2022-10-20T00:31:14.555Z,9.03
2022-10-20T00:33:41.981Z,9.27
2022-10-20T00:36:13.111Z,9.17
2022-10-20T00:38:40.427Z,9.90
2022-10-20T00:41:08.377Z,9.20
2022-10-20T00:43:57.249Z,8.73
2022-10-20T00:46:30.606Z,9.17
2022-10-20T00:49:01.856Z,9.13
2022-10-20T00:51:30.855Z,8.53
2022-10-20T00:54:11.708Z,8.70
2022-10-20T00:56:43.838Z,8.97
2022-10-20T00:59:14.522Z,8.47
2022-10-20T01:01:43.515Z,9.47
2022-10-20T01:04:13.438Z,9.67
2022-10-20T01:06:40.699Z,9.70
2022-10-20T01:09:08.592Z,10.40
2022-10-20T01:12:01.716Z,9.83
2022-10-20T01:14:51.645Z,10.07
2022-10-20T01:17:30.682Z,10.03
2022-10-20T01:20:16.583Z,10.37
2022-10-20T01:23:21.333Z,11.07
2022-10-20T01:26:13.526Z,10.50
2022-10-20T01:28:55.613Z,9.97
2022-10-20T01:31:31.993Z,9.00
2022-10-20T01:34:13.121Z,9.07
2022-10-20T01:36:47.748Z,8.40
2022-10-20T01:40:06.046Z,9.83
2022-10-20T01:45:06.986Z,9.07
2022-10-20T01:47:36.328Z,9.10
2022-10-20T01:50:08.333Z,8.20
2022-10-20T01:52:38.310Z,10.13
2022-10-20T01:55:17.198Z,9.33
2022-10-20T01:58:12.213Z,10.03
2022-10-20T02:00:43.364Z,10.20
2022-10-20T02:03:31.345Z,10.27
2022-10-20T02:06:25.966Z,9.53
2022-10-20T02:08:57.550Z,9.43
2022-10-20T02:11:55.069Z,9.70
2022-10-20T02:14:23.603Z,9.63
2022-10-20T02:16:59.223Z,9.27
2022-10-20T02:19:30.383Z,9.77
2022-10-20T02:22:01.323Z,9.40
2022-10-20T02:24:34.153Z,10.07
2022-10-20T02:27:05.389Z,9.40
2022-10-20T02:29:53.764Z,9.67
2022-10-20T02:32:22.916Z,9.90
2022-10-20T02:34:50.156Z,9.57
2022-10-20T02:37:19.758Z,8.87
2022-10-20T02:39:47.005Z,8.70
2022-10-20T02:42:14.382Z,8.77
2022-10-20T02:44:41.655Z,9.03
2022-10-20T02:47:08.885Z,9.13
2022-10-20T02:49:36.095Z,9.10
2022-10-20T02:52:03.379Z,8.87
2022-10-20T02:54:30.587Z,9.90
2022-10-20T02:56:57.782Z,9.47
2022-10-20T02:59:27.459Z,8.73
2022-10-20T03:01:54.738Z,9.33
2022-10-20T03:04:22.031Z,9.00
2022-10-20T03:06:49.456Z,8.90
2022-10-20T03:09:16.683Z,8.70
2022-10-20T03:11:43.883Z,9.00
2022-10-20T03:14:11.638Z,8.70
2022-10-20T03:16:39.544Z,9.07
2022-10-20T03:19:09.134Z,8.40
2022-10-20T03:21:38.823Z,8.83
2022-10-20T03:24:06.301Z,8.80
2022-10-20T03:26:33.803Z,8.97
2022-10-20T03:29:01.012Z,9.60
2022-10-20T03:31:28.179Z,9.03
2022-10-20T03:33:55.404Z,8.23
2022-10-20T03:36:25.062Z,9.13
2022-10-20T03:38:52.257Z,8.83
2022-10-20T03:41:21.787Z,9.10
2022-10-20T03:43:48.986Z,8.70
2022-10-20T03:46:18.360Z,8.80
2022-10-20T03:48:45.678Z,8.73
2022-10-20T03:51:14.087Z,8.80
2022-10-20T03:53:45.356Z,9.47
2022-10-20T03:56:18.050Z,9.07
2022-10-20T03:58:46.014Z,8.97
2022-10-20T04:01:18.112Z,8.70
2022-10-20T04:03:45.324Z,8.67
2022-10-20T04:06:13.466Z,9.77
2022-10-20T04:08:40.744Z,8.90
2022-10-20T04:11:08.071Z,8.87
2022-10-20T04:13:35.270Z,9.20
2022-10-20T04:16:02.505Z,8.97
2022-10-20T04:18:29.779Z,8.77
2022-10-20T04:20:56.964Z,9.17
2022-10-20T04:23:24.208Z,9.17
2022-10-20T04:25:51.454Z,8.77
2022-10-20T04:28:21.088Z,9.70
2022-10-20T04:30:50.812Z,9.90
2022-10-20T04:33:18.082Z,10.23
2022-10-20T04:35:45.392Z,9.83
2022-10-20T04:38:12.627Z,9.70
2022-10-20T04:40:39.871Z,10.07
2022-10-20T04:43:07.061Z,9.80
2022-10-20T04:45:37.007Z,10.00
2022-10-20T04:48:05.451Z,9.70
2022-10-20T04:50:32.671Z,9.53
2022-10-20T04:53:00.025Z,9.10
2022-10-20T04:55:27.314Z,9.53
2022-10-20T04:57:54.619Z,9.90
2022-10-20T05:00:21.842Z,9.30
2022-10-20T05:02:51.175Z,9.73
2022-10-20T05:05:18.460Z,9.40
2022-10-20T05:07:45.597Z,9.20
2022-10-20T05:10:12.851Z,9.50
2022-10-20T05:12:42.411Z,9.67
2022-10-20T05:15:09.849Z,9.93
2022-10-20T05:17:39.904Z,9.10
2022-10-20T05:20:09.675Z,9.73
2022-10-20T05:22:37.245Z,10.10
2022-10-20T05:25:31.349Z,9.70
2022-10-20T05:27:54.987Z,9.70
2022-10-20T05:30:22.187Z,10.40
2022-10-20T05:32:49.339Z,10.27
2022-10-20T05:35:16.565Z,10.83
2022-10-20T05:37:43.764Z,10.50
2022-10-20T05:40:11.646Z,10.30
2022-10-20T05:42:39.426Z,10.70
2022-10-20T05:45:07.378Z,10.30
2022-10-20T05:47:35.005Z,10.43
2022-10-20T05:50:02.304Z,10.73
2022-10-20T05:52:29.505Z,9.93
2022-10-20T05:54:56.780Z,10.13
2022-10-20T05:57:24.239Z,10.80
2022-10-20T05:59:51.428Z,10.30
2022-10-20T06:02:19.040Z,11.17
2022-10-20T06:04:46.233Z,10.23
2022-10-20T06:07:13.458Z,10.97
2022-10-20T06:09:41.238Z,11.00
2022-10-20T06:14:43.098Z,10.43
2022-10-20T06:17:12.656Z,10.10
2022-10-20T06:19:39.880Z,10.20
2022-10-20T06:22:07.161Z,10.27
2022-10-20T06:24:34.839Z,10.13
2022-10-20T06:27:02.003Z,9.63
2022-10-20T06:29:31.340Z,10.37
2022-10-20T06:32:00.674Z,11.30
2022-10-20T06:34:27.934Z,10.33
2022-10-20T06:36:55.167Z,11.03
2022-10-20T06:39:24.990Z,12.13
2022-10-20T06:41:54.236Z,11.00
2022-10-20T06:44:23.582Z,11.20
2022-10-20T06:46:54.533Z,10.70
2022-10-20T06:49:22.510Z,9.77
2022-10-20T06:51:50.200Z,9.87
2022-10-20T06:54:17.916Z,9.90
2022-10-20T06:56:45.189Z,10.43
2022-10-20T06:59:14.755Z,11.07
2022-10-20T07:01:42.357Z,11.17
2022-10-20T07:04:16.313Z,10.33
2022-10-20T07:06:45.227Z,10.37
2022-10-20T07:09:18.307Z,10.70
2022-10-20T07:11:45.875Z,10.33
2022-10-20T07:14:14.214Z,10.17
2022-10-20T07:16:43.674Z,10.10
2022-10-20T07:19:11.058Z,10.27
2022-10-20T07:21:41.592Z,9.50
2022-10-20T07:24:13.072Z,10.20
2022-10-20T07:26:41.785Z,10.00
2022-10-20T07:29:10.580Z,10.67
2022-10-20T07:31:48.215Z,10.93
2022-10-20T07:34:25.868Z,10.10
2022-10-20T07:36:59.600Z,9.37
2022-10-20T07:39:27.476Z,9.37
2022-10-20T07:41:55.072Z,9.20
2022-10-20T07:44:22.533Z,8.70
2022-10-20T07:46:50.163Z,8.93
2022-10-20T07:49:42.766Z,9.00
2022-10-20T07:52:05.231Z,8.63
2022-10-20T07:54:32.568Z,9.17
2022-10-20T07:56:59.836Z,8.57
2022-10-20T07:59:27.203Z,8.43
2022-10-20T08:01:56.137Z,8.90
2022-10-20T08:04:28.120Z,8.70
2022-10-20T08:06:55.318Z,8.83
2022-10-20T08:09:22.960Z,8.37
2022-10-20T08:11:52.927Z,9.17
2022-10-20T08:14:27.374Z,7.90
2022-10-20T08:16:57.303Z,8.33
2022-10-20T08:19:40.440Z,8.80
2022-10-20T08:22:10.416Z,9.00
2022-10-20T08:24:42.577Z,8.07
2022-10-20T08:27:09.819Z,8.67
2022-10-20T08:29:37.904Z,8.73
2022-10-20T08:32:05.547Z,8.17
2022-10-20T08:34:32.867Z,8.53
2022-10-20T08:37:00.240Z,7.83
2022-10-20T08:39:27.530Z,8.10
2022-10-20T08:42:07.668Z,8.27
2022-10-20T08:44:38.251Z,8.17
2022-10-20T08:47:16.347Z,8.70
2022-10-20T08:49:45.802Z,8.77
2022-10-20T08:52:15.360Z,9.17
2022-10-20T08:54:48.559Z,8.77
2022-10-20T08:57:23.309Z,8.80
2022-10-20T08:59:56.375Z,8.37
2022-10-20T09:02:23.717Z,7.97
2022-10-20T09:04:58.906Z,8.87
2022-10-20T09:07:34.105Z,9.47
2022-10-20T09:10:24.569Z,9.33
2022-10-20T09:13:32.596Z,8.33
2022-10-20T09:16:40.578Z,8.43
2022-10-20T09:19:29.482Z,7.90
2022-10-20T09:22:07.018Z,8.37
2022-10-20T09:24:36.291Z,7.80
2022-10-20T09:27:39.855Z,7.87
2022-10-20T09:30:18.826Z,7.73
2022-10-20T09:32:48.015Z,8.17
2022-10-20T09:35:17.839Z,7.60
2022-10-20T09:37:54.942Z,8.23
2022-10-20T09:40:24.124Z,7.33
2022-10-20T09:42:57.141Z,8.03
2022-10-20T09:45:28.938Z,7.90
2022-10-20T09:48:03.109Z,7.70
2022-10-20T09:50:39.378Z,8.00
2022-10-20T09:53:18.628Z,7.20
2022-10-20T09:55:49.828Z,8.00
2022-10-20T09:58:23.262Z,7.97
2022-10-20T10:01:13.158Z,7.40
2022-10-20T10:03:45.527Z,8.17
2022-10-20T10:06:44.659Z,7.28
2022-10-20T10:09:37.847Z,8.10
2022-10-20T10:12:19.631Z,7.90
2022-10-20T10:15:00.547Z,8.30
2022-10-20T10:17:37.089Z,7.80
2022-10-20T10:20:36.806Z,8.13
2022-10-20T10:23:22.562Z,6.97
2022-10-20T10:25:51.346Z,7.43
2022-10-20T10:28:31.233Z,7.77
2022-10-20T10:31:27.882Z,7.63
2022-10-20T10:34:13.107Z,6.80
2022-10-20T10:36:40.675Z,7.00
2022-10-20T10:39:13.724Z,7.28
2022-10-20T10:42:03.043Z,8.10
2022-10-20T10:44:37.982Z,7.07
2022-10-20T10:47:16.751Z,7.27
2022-10-20T10:50:03.322Z,7.68
2022-10-20T10:53:14.509Z,7.43
2022-10-20T10:55:48.990Z,6.85
2022-10-20T10:58:38.143Z,6.53
2022-10-20T11:01:14.751Z,7.38
2022-10-20T11:04:19.565Z,6.72
2022-10-20T11:07:03.789Z,6.32
2022-10-20T11:09:45.169Z,6.00
2022-10-20T11:12:42.230Z,6.20
2022-10-20T11:15:24.784Z,6.38
2022-10-20T11:18:30.958Z,6.03
2022-10-20T11:21:31.682Z,6.78
2022-10-20T11:24:40.224Z,6.30
2022-10-20T11:27:13.710Z,6.00
2022-10-20T11:29:49.887Z,6.15
2022-10-20T11:32:26.814Z,6.03
2022-10-20T11:35:21.043Z,5.65
2022-10-20T11:37:50.263Z,5.72
2022-10-20T11:40:23.693Z,5.85
2022-10-20T11:43:14.079Z,6.05
2022-10-20T11:46:20.959Z,5.70
2022-10-20T11:48:59.159Z,6.47
2022-10-20T11:51:30.445Z,5.90
2022-10-20T11:54:25.589Z,5.65
2022-10-20T11:57:17.193Z,5.10
2022-10-20T11:59:48.145Z,5.30
2022-10-20T12:02:21.213Z,5.22
2022-10-20T12:05:12.820Z,5.65
2022-10-20T12:08:28.285Z,5.10
2022-10-20T12:11:05.910Z,4.88
2022-10-20T12:13:54.398Z,4.88
2022-10-20T12:16:55.715Z,4.22
2022-10-20T12:19:22.861Z,4.47
2022-10-20T12:22:05.035Z,4.38
2022-10-20T12:24:38.401Z,4.70
2022-10-20T12:27:08.681Z,4.50
2022-10-20T12:29:38.014Z,4.20
2022-10-20T12:32:26.144Z,4.15
2022-10-20T12:34:59.105Z,3.97
2022-10-20T12:37:33.522Z,4.00
2022-10-20T12:40:07.545Z,3.55
2022-10-20T12:42:47.796Z,4.03
2022-10-20T12:45:21.080Z,3.10
2022-10-20T12:47:55.209Z,3.97
2022-10-20T12:50:36.847Z,3.67
2022-10-20T12:53:30.927Z,3.38
2022-10-20T12:56:03.141Z,3.10
2022-10-20T12:58:33.500Z,3.92
2022-10-20T13:01:05.518Z,3.35
2022-10-20T13:03:58.833Z,2.97
2022-10-20T13:06:30.829Z,3.15
2022-10-20T13:09:04.029Z,3.13
2022-10-20T13:11:43.266Z,3.30
2022-10-20T13:14:13.587Z,4.75
2022-10-20T13:17:00.425Z,3.90
2022-10-20T13:19:44.636Z,2.80
2022-10-20T13:22:53.609Z,2.70
2022-10-20T13:25:48.584Z,2.85
2022-10-20T13:28:20.720Z,3.00
2022-10-20T13:31:02.629Z,2.67
2022-10-20T13:34:04.641Z,2.50
2022-10-20T13:36:35.554Z,3.10
2022-10-20T13:39:26.167Z,3.08
2022-10-20T13:41:56.081Z,2.75
2022-10-20T13:44:31.208Z,2.53
2022-10-20T13:47:36.035Z,2.85
2022-10-20T13:50:14.917Z,2.40
2022-10-20T13:52:46.138Z,2.88
2022-10-20T13:55:23.437Z,2.83
2022-10-20T13:57:55.459Z,2.50
2022-10-20T14:00:33.103Z,2.60
2022-10-20T14:03:03.877Z,2.30
2022-10-20T14:05:39.236Z,2.20
2022-10-20T14:08:12.032Z,1.95
2022-10-20T14:10:57.842Z,2.65
2022-10-20T14:13:38.071Z,2.35
2022-10-20T14:16:23.978Z,2.28
2022-10-20T14:19:11.509Z,2.30
2022-10-20T14:21:45.444Z,3.00
2022-10-20T14:24:22.705Z,3.03
2022-10-20T14:26:50.406Z,2.45
2022-10-20T14:29:19.720Z,2.25
2022-10-20T14:31:48.187Z,2.38
2022-10-20T14:34:21.164Z,2.53
2022-10-20T14:36:53.120Z,2.63
2022-10-20T14:39:36.780Z,2.40
2022-10-20T14:42:35.386Z,2.55
2022-10-20T14:45:04.060Z,2.47
2022-10-20T14:47:39.906Z,2.47
2022-10-20T14:50:42.405Z,1.92
2022-10-20T14:53:31.601Z,2.60
2022-10-20T14:56:02.431Z,2.63
2022-10-20T14:58:54.223Z,2.33
2022-10-20T15:01:32.373Z,2.50
2022-10-20T15:04:24.705Z,2.22
2022-10-20T15:07:20.838Z,2.10
2022-10-20T15:09:54.203Z,2.55
2022-10-20T15:12:28.090Z,2.40
2022-10-20T15:15:27.158Z,2.58
2022-10-20T15:18:13.523Z,2.58
2022-10-20T15:20:43.419Z,2.38
2022-10-20T15:23:20.691Z,2.55
2022-10-20T15:26:04.259Z,2.40
2022-10-20T15:28:43.591Z,2.33
2022-10-20T15:31:13.975Z,2.88
2022-10-20T15:33:42.209Z,2.55
2022-10-20T15:36:21.737Z,2.90
2022-10-20T15:38:49.986Z,2.58
2022-10-20T15:41:19.545Z,2.47
2022-10-20T15:43:49.232Z,2.78
2022-10-20T15:46:17.610Z,2.42
2022-10-20T15:48:45.470Z,2.70
2022-10-20T15:51:21.593Z,2.40
2022-10-20T15:53:49.981Z,2.60
2022-10-20T15:56:17.907Z,2.58
2022-10-20T15:58:49.997Z,2.55
2022-10-20T16:01:18.804Z,2.53
2022-10-20T16:03:49.694Z,2.50
2022-10-20T16:06:19.681Z,2.65
2022-10-20T16:08:48.925Z,2.42
2022-10-20T16:11:19.134Z,2.90
2022-10-20T16:13:46.627Z,2.85
2022-10-20T16:16:19.475Z,3.15
2022-10-20T16:18:47.937Z,2.83
2022-10-20T16:21:17.495Z,2.40
2022-10-20T16:23:45.074Z,2.80
2022-10-20T16:26:14.331Z,2.63
2022-10-20T16:28:44.279Z,3.03
2022-10-20T16:31:14.107Z,2.70
2022-10-20T16:33:43.786Z,2.40
2022-10-20T16:36:14.841Z,2.75
2022-10-20T16:38:42.862Z,2.78
2022-10-20T16:41:15.540Z,2.70
2022-10-20T16:43:46.313Z,2.90
2022-10-20T16:46:14.994Z,2.75
2022-10-20T16:48:42.878Z,2.45
2022-10-20T16:51:16.611Z,2.90
2022-10-20T16:53:46.004Z,2.42
2022-10-20T16:56:15.425Z,2.63
2022-10-20T16:58:45.632Z,2.70
2022-10-20T17:01:14.153Z,3.30
2022-10-20T17:03:46.143Z,3.10
2022-10-20T17:06:14.662Z,3.30
2022-10-20T17:08:42.050Z,2.92
2022-10-20T17:11:12.288Z,2.78
2022-10-20T17:13:39.972Z,3.17
2022-10-20T17:16:11.187Z,2.85
2022-10-20T17:18:38.699Z,2.40
2022-10-20T17:21:06.865Z,2.50
2022-10-20T17:23:38.682Z,2.75
2022-10-20T17:26:16.130Z,2.60
2022-10-20T17:28:46.047Z,2.33
2022-10-20T17:33:47.466Z,2.53
2022-10-20T17:36:15.738Z,2.78
2022-10-20T17:38:43.605Z,2.72
2022-10-20T17:41:15.837Z,3.00
2022-10-20T17:43:43.134Z,2.80
2022-10-20T17:46:15.480Z,2.95
2022-10-20T17:48:42.656Z,3.03
2022-10-20T17:51:21.791Z,2.67
2022-10-20T17:53:51.308Z,2.95
2022-10-20T17:56:23.614Z,2.72
2022-10-20T17:58:54.707Z,2.90
2022-10-20T18:01:27.901Z,3.50
2022-10-20T18:04:02.835Z,3.10
2022-10-20T18:06:34.088Z,3.40
2022-10-20T18:09:08.327Z,3.22
2022-10-20T18:11:37.081Z,3.58
2022-10-20T18:14:05.049Z,3.13
2022-10-20T18:16:34.989Z,3.05
2022-10-20T18:19:02.637Z,2.90
2022-10-20T18:21:31.330Z,3.20
2022-10-20T18:24:02.453Z,3.80
2022-10-20T18:26:32.976Z,3.13
2022-10-20T18:29:01.823Z,3.85
2022-10-20T18:31:31.440Z,3.65
2022-10-20T18:34:05.795Z,3.83
2022-10-20T18:36:40.452Z,4.20
2022-10-20T18:39:10.765Z,3.38
2022-10-20T18:41:43.161Z,3.60
2022-10-20T18:44:16.717Z,4.10
2022-10-20T18:46:44.622Z,3.95
2022-10-20T18:49:13.991Z,4.05
2022-10-20T18:51:41.418Z,3.88
2022-10-20T18:54:09.399Z,3.60
2022-10-20T18:56:36.914Z,3.45
2022-10-20T18:59:07.361Z,4.35
2022-10-20T19:01:37.442Z,4.00
2022-10-20T19:04:05.252Z,3.95
2022-10-20T19:06:35.287Z,3.90
2022-10-20T19:09:09.768Z,3.35
2022-10-20T19:11:39.848Z,3.85
2022-10-20T19:14:09.867Z,4.28
2022-10-20T19:16:37.762Z,3.95
2022-10-20T19:19:07.453Z,3.63
2022-10-20T19:21:35.679Z,4.20
2022-10-20T19:24:16.659Z,3.67
2022-10-20T19:26:57.250Z,4.00
2022-10-20T19:29:30.197Z,3.88
2022-10-20T19:32:00.040Z,4.15
2022-10-20T19:34:30.297Z,5.07
2022-10-20T19:36:58.235Z,4.10
2022-10-20T19:39:28.650Z,4.10
2022-10-20T19:41:58.001Z,5.10
2022-10-20T19:44:27.671Z,4.60
2022-10-20T19:46:54.852Z,4.35
2022-10-20T19:49:22.938Z,4.65
2022-10-20T19:51:50.211Z,4.45
2022-10-20T19:54:17.990Z,4.75
2022-10-20T19:56:45.433Z,4.57
2022-10-20T19:59:13.324Z,4.77
2022-10-20T20:01:40.659Z,4.35
2022-10-20T20:04:10.809Z,3.92
2022-10-20T20:06:38.124Z,4.97
2022-10-20T20:09:07.912Z,4.03
2022-10-20T20:11:37.417Z,4.55
2022-10-20T20:14:11.507Z,4.22
2022-10-20T20:16:39.201Z,4.80
2022-10-20T20:19:06.814Z,4.90
2022-10-20T20:21:34.192Z,4.95
2022-10-20T20:24:03.476Z,5.13
2022-10-20T20:26:32.974Z,5.15
2022-10-20T20:29:03.601Z,4.78
2022-10-20T20:31:33.628Z,4.47
2022-10-20T20:34:00.843Z,4.22
2022-10-20T20:36:28.316Z,4.35
2022-10-20T20:38:59.771Z,4.72
2022-10-20T20:41:30.251Z,4.13
2022-10-20T20:43:57.894Z,4.90
2022-10-20T20:46:29.160Z,4.68
2022-10-20T20:49:01.052Z,5.00
2022-10-20T20:51:33.943Z,5.15
2022-10-20T20:54:02.711Z,4.88
2022-10-20T20:56:30.462Z,4.68
2022-10-20T20:58:57.694Z,4.80
2022-10-20T21:01:27.551Z,4.75
2022-10-20T21:03:56.545Z,4.47
2022-10-20T21:06:49.400Z,4.50
2022-10-20T21:09:22.066Z,4.25
2022-10-20T21:11:49.758Z,4.80
2022-10-20T21:14:17.136Z,5.10
2022-10-20T21:16:44.605Z,4.60
2022-10-20T21:19:11.937Z,4.50
2022-10-20T21:21:50.126Z,4.82
2022-10-20T21:24:18.535Z,5.07
2022-10-20T21:26:45.866Z,4.30
2022-10-20T21:29:13.144Z,4.57
2022-10-20T21:31:40.968Z,4.82
2022-10-20T21:34:08.225Z,4.35
2022-10-20T21:36:37.778Z,4.68
2022-10-20T21:39:07.110Z,4.97
2022-10-20T21:41:36.152Z,4.22
2022-10-20T21:44:07.874Z,4.40
2022-10-20T21:46:39.636Z,4.60
2022-10-20T21:49:10.018Z,4.32
2022-10-20T21:51:46.070Z,4.50
2022-10-20T21:54:15.963Z,4.28
2022-10-20T21:56:47.203Z,4.20
2022-10-20T21:59:25.898Z,4.63
2022-10-20T22:01:54.967Z,4.30
2022-10-20T22:04:24.779Z,4.97
2022-10-20T22:06:52.576Z,4.15
2022-10-20T22:09:21.004Z,4.88
2022-10-20T22:11:59.520Z,5.30
2022-10-20T22:14:27.139Z,4.50
2022-10-20T22:16:57.366Z,4.78
2022-10-20T22:19:27.179Z,4.20
2022-10-20T22:24:23.630Z,3.85
2022-10-20T22:26:52.231Z,4.53
2022-10-20T22:29:21.159Z,3.90
2022-10-20T22:31:48.680Z,3.78
2022-10-20T22:34:18.332Z,3.58
2022-10-20T22:36:45.628Z,3.40
2022-10-20T22:41:52.066Z,3.58
2022-10-20T22:44:19.246Z,3.20
2022-10-20T22:46:46.421Z,3.10
2022-10-20T22:49:15.808Z,3.30
2022-10-20T22:51:43.089Z,2.83
2022-10-20T22:54:10.501Z,2.90
2022-10-20T22:56:37.789Z,2.50
2022-10-20T22:59:05.064Z,2.80
2022-10-20T23:01:32.337Z,2.80
2022-10-20T23:03:59.593Z,2.55
2022-10-20T23:06:28.005Z,2.30
2022-10-20T23:08:56.643Z,2.63
2022-10-20T23:11:24.744Z,2.53
2022-10-20T23:13:52.109Z,2.25
2022-10-20T23:16:19.697Z,2.38
2022-10-20T23:18:50.201Z,2.03
2022-10-20T23:21:17.934Z,1.85
2022-10-20T23:23:45.735Z,2.40
2022-10-20T23:26:15.228Z,2.00
2022-10-20T23:28:44.469Z,1.80
2022-10-20T23:31:14.235Z,1.53
2022-10-20T23:33:43.098Z,1.90
2022-10-20T23:36:11.839Z,1.75
2022-10-20T23:38:39.515Z,1.83
2022-10-20T23:41:07.165Z,1.95
2022-10-20T23:46:06.058Z,1.90
2022-10-20T23:48:33.481Z,1.95
2022-10-20T23:51:00.990Z,1.90
2022-10-20T23:53:30.905Z,2.00
2022-10-20T23:55:58.099Z,2.33
2022-10-20T23:58:27.935Z,1.88
